createdAt,value
2018-06-04T00:00:10.095Z,34.00
2018-06-04T00:01:10.067Z,33.30
2018-06-04T00:02:10.035Z,32.10
2018-06-04T00:03:09.999Z,32.80
2018-06-04T00:04:09.965Z,33.70
2018-06-04T00:05:09.930Z,33.00
2018-06-04T00:06:09.899Z,33.00
2018-06-04T00:07:09.863Z,32.10
2018-06-04T00:08:09.838Z,32.60
2018-06-04T00:09:09.804Z,32.40
2018-06-04T00:10:09.771Z,32.50
2018-06-04T00:11:09.743Z,32.00
2018-06-04T00:12:09.704Z,33.30
2018-06-04T00:13:09.677Z,32.10
2018-06-04T00:14:09.638Z,31.20
2018-06-04T00:15:09.613Z,33.40
2018-06-04T00:16:09.574Z,32.10
2018-06-04T00:17:09.544Z,31.80
2018-06-04T00:18:09.537Z,32.20
2018-06-04T00:19:09.477Z,32.20
2018-06-04T00:20:09.450Z,32.10
2018-06-04T00:21:09.417Z,32.10
2018-06-04T00:22:09.383Z,31.70
2018-06-04T00:23:09.351Z,31.70
2018-06-04T00:24:09.313Z,31.60
2018-06-04T00:25:09.290Z,31.80
2018-06-04T00:26:09.252Z,33.20
2018-06-04T00:27:09.218Z,33.30
2018-06-04T00:28:09.193Z,31.90
2018-06-04T00:29:09.157Z,31.70
2018-06-04T00:30:09.121Z,31.80
2018-06-04T00:31:09.087Z,31.40
2018-06-04T00:32:09.064Z,31.50
2018-06-04T00:33:09.031Z,32.80
2018-06-04T00:34:08.993Z,31.80
2018-06-04T00:35:08.962Z,31.00
2018-06-04T00:36:08.923Z,32.40
2018-06-04T00:37:08.896Z,31.70
2018-06-04T00:38:08.863Z,32.70
2018-06-04T00:39:08.826Z,32.40
2018-06-04T00:40:08.800Z,33.00
2018-06-04T00:41:08.770Z,34.40
2018-06-04T00:42:08.733Z,33.60
2018-06-04T00:43:08.703Z,32.70
2018-06-04T00:44:08.668Z,32.00
2018-06-04T00:45:08.635Z,33.20
2018-06-04T00:46:08.603Z,32.90
2018-06-04T00:47:08.574Z,33.10
2018-06-04T00:48:08.535Z,33.60
2018-06-04T00:49:08.505Z,32.90
2018-06-04T00:50:08.478Z,31.90
2018-06-04T00:51:08.434Z,31.00
2018-06-04T00:52:08.409Z,31.20
2018-06-04T00:53:08.377Z,30.60
2018-06-04T00:54:08.345Z,33.10
2018-06-04T00:55:08.311Z,31.90
2018-06-04T00:56:08.274Z,32.20
2018-06-04T00:57:08.248Z,32.70
2018-06-04T00:58:08.212Z,32.40
2018-06-04T00:59:08.183Z,32.20
2018-06-04T01:00:08.151Z,31.40
2018-06-04T01:01:08.116Z,33.00
2018-06-04T01:02:08.086Z,32.30
2018-06-04T01:03:08.048Z,32.30
2018-06-04T01:04:08.024Z,32.50
2018-06-04T01:05:07.987Z,33.50
2018-06-04T01:06:07.952Z,32.80
2018-06-04T01:07:07.923Z,34.90
2018-06-04T01:08:07.884Z,34.30
2018-06-04T01:09:07.854Z,33.90
2018-06-04T01:10:07.830Z,33.50
2018-06-04T01:11:07.786Z,34.80
2018-06-04T01:12:07.761Z,34.10
2018-06-04T01:13:07.726Z,33.50
2018-06-04T01:14:07.693Z,34.20
2018-06-04T01:15:07.662Z,33.40
2018-06-04T01:16:07.624Z,32.90
2018-06-04T01:17:07.595Z,32.50
2018-06-04T01:18:07.561Z,33.10
2018-06-04T01:19:07.532Z,33.10
2018-06-04T01:20:07.493Z,32.40
2018-06-04T01:21:07.466Z,30.10
2018-06-04T01:22:07.431Z,31.90
2018-06-04T01:23:07.396Z,30.90
2018-06-04T01:24:07.368Z,30.30
2018-06-04T01:25:07.339Z,31.30
2018-06-04T01:26:07.302Z,31.40
2018-06-04T01:27:07.274Z,30.50
2018-06-04T01:28:07.232Z,31.10
2018-06-04T01:29:07.201Z,31.50
2018-06-04T01:30:07.171Z,31.30
2018-06-04T01:31:07.132Z,30.90
2018-06-04T01:32:07.109Z,32.50
2018-06-04T01:33:07.074Z,32.80
2018-06-04T01:34:07.044Z,31.90
2018-06-04T01:35:07.005Z,31.40
2018-06-04T01:36:06.975Z,31.60
2018-06-04T01:37:06.944Z,32.00
2018-06-04T01:38:06.907Z,31.80
2018-06-04T01:39:06.877Z,32.80
2018-06-04T01:40:06.839Z,33.70
2018-06-04T01:41:06.810Z,33.10
2018-06-04T01:42:06.777Z,34.40
2018-06-04T01:43:06.739Z,33.00
2018-06-04T01:44:06.712Z,32.20
2018-06-04T01:45:06.680Z,33.60
2018-06-04T01:46:06.647Z,31.20
2018-06-04T01:47:06.616Z,31.40
2018-06-04T01:48:06.584Z,30.50
2018-06-04T01:49:06.551Z,30.70
2018-06-04T01:50:06.515Z,30.50
2018-06-04T01:51:06.487Z,32.10
2018-06-04T01:52:06.449Z,31.00
2018-06-04T01:53:06.423Z,32.20
2018-06-04T01:54:06.382Z,31.50
2018-06-04T01:55:06.350Z,33.10
2018-06-04T01:56:06.319Z,31.50
2018-06-04T01:57:06.286Z,33.00
2018-06-04T01:58:06.252Z,32.30
2018-06-04T01:59:06.221Z,33.00
2018-06-04T02:00:06.183Z,31.30
2018-06-04T02:01:06.152Z,31.50
2018-06-04T02:02:06.116Z,31.60
2018-06-04T02:03:06.083Z,30.70
2018-06-04T02:04:06.057Z,32.40
2018-06-04T02:05:06.022Z,32.60
2018-06-04T02:06:05.988Z,32.70
2018-06-04T02:07:05.953Z,32.00
2018-06-04T02:08:05.927Z,33.00
2018-06-04T02:09:05.892Z,32.20
2018-06-04T02:10:05.856Z,32.80
2018-06-04T02:11:05.827Z,32.80
2018-06-04T02:12:05.789Z,32.60
2018-06-04T02:13:05.757Z,31.50
2018-06-04T02:14:05.727Z,31.90
2018-06-04T02:15:05.693Z,33.20
2018-06-04T02:16:05.665Z,33.30
2018-06-04T02:17:05.626Z,32.20
2018-06-04T02:18:05.596Z,32.60
2018-06-04T02:19:05.562Z,33.50
2018-06-04T02:20:05.524Z,32.30
2018-06-04T02:21:05.493Z,32.70
2018-06-04T02:22:05.463Z,31.80
2018-06-04T02:23:05.432Z,32.80
2018-06-04T02:24:05.390Z,33.10
2018-06-04T02:25:05.361Z,32.80
2018-06-04T02:26:05.327Z,32.40
2018-06-04T02:27:05.294Z,33.40
2018-06-04T02:28:05.264Z,32.80
2018-06-04T02:29:05.232Z,32.20
2018-06-04T02:30:05.198Z,31.60
2018-06-04T02:31:05.170Z,31.70
2018-06-04T02:32:05.125Z,32.90
2018-06-04T02:33:05.097Z,32.90
2018-06-04T02:34:05.060Z,32.70
2018-06-04T02:35:05.028Z,33.00
2018-06-04T02:36:05.001Z,32.90
2018-06-04T02:37:04.968Z,32.10
2018-06-04T02:38:04.933Z,32.50
2018-06-04T02:39:04.895Z,31.70
2018-06-04T02:40:04.868Z,31.40
2018-06-04T02:41:04.835Z,31.40
2018-06-04T02:42:04.809Z,30.70
2018-06-04T02:43:04.769Z,31.80
2018-06-04T02:44:04.734Z,32.40
2018-06-04T02:45:04.698Z,31.10
2018-06-04T02:46:04.664Z,32.00
2018-06-04T02:47:04.629Z,33.20
2018-06-04T02:48:04.602Z,32.50
2018-06-04T02:49:04.567Z,31.70
2018-06-04T02:50:04.608Z,32.80
2018-06-04T02:51:04.502Z,31.40
2018-06-04T02:52:05.348Z,31.10
2018-06-04T02:53:04.430Z,32.30
2018-06-04T02:54:04.400Z,32.00
2018-06-04T02:55:04.371Z,32.50
2018-06-04T02:56:04.330Z,32.20
2018-06-04T02:57:04.299Z,31.80
2018-06-04T02:58:04.264Z,31.20
2018-06-04T02:59:04.228Z,31.60
2018-06-04T03:00:04.206Z,32.90
2018-06-04T03:01:04.171Z,32.60
2018-06-04T03:02:04.183Z,32.60
2018-06-04T03:03:04.147Z,33.20
2018-06-04T03:04:04.062Z,33.30
2018-06-04T03:05:04.031Z,31.70
2018-06-04T03:06:04.003Z,32.10
2018-06-04T03:07:03.964Z,31.80
2018-06-04T03:08:03.936Z,33.40
2018-06-04T03:09:03.900Z,33.00
2018-06-04T03:10:03.867Z,31.10
2018-06-04T03:11:03.831Z,33.10
2018-06-04T03:12:03.802Z,32.00
2018-06-04T03:13:03.771Z,31.20
2018-06-04T03:14:03.737Z,31.70
2018-06-04T03:15:03.703Z,32.40
2018-06-04T03:16:03.661Z,31.00
2018-06-04T03:17:03.633Z,31.80
2018-06-04T03:18:03.597Z,33.30
2018-06-04T03:19:03.564Z,33.90
2018-06-04T03:20:03.535Z,32.20
2018-06-04T03:21:03.499Z,31.10
2018-06-04T03:22:03.467Z,31.80
2018-06-04T03:23:03.435Z,32.20
2018-06-04T03:24:03.393Z,31.30
2018-06-04T03:25:03.364Z,31.10
2018-06-04T03:26:03.333Z,31.90
2018-06-04T03:27:03.300Z,31.90
2018-06-04T03:28:03.260Z,32.30
2018-06-04T03:29:03.234Z,33.40
2018-06-04T03:30:03.197Z,32.00
2018-06-04T03:31:03.161Z,34.90
2018-06-04T03:32:03.135Z,33.20
2018-06-04T03:33:03.100Z,33.30
2018-06-04T03:34:03.067Z,32.80
2018-06-04T03:35:03.031Z,33.50
2018-06-04T03:36:02.994Z,33.30
2018-06-04T03:37:02.960Z,32.10
2018-06-04T03:38:02.933Z,32.80
2018-06-04T03:39:02.894Z,31.60
2018-06-04T03:40:02.867Z,32.30
2018-06-04T03:41:02.832Z,33.50
2018-06-04T03:42:02.793Z,34.20
2018-06-04T03:43:02.759Z,31.60
2018-06-04T03:44:02.732Z,31.90
2018-06-04T03:45:02.704Z,32.40
2018-06-04T03:46:02.665Z,31.90
2018-06-04T03:47:02.636Z,31.60
2018-06-04T03:48:02.591Z,31.00
2018-06-04T03:49:02.561Z,31.30
2018-06-04T03:50:02.527Z,32.60
2018-06-04T03:51:02.493Z,32.10
2018-06-04T03:52:02.500Z,32.10
2018-06-04T03:53:02.429Z,32.70
2018-06-04T03:54:02.391Z,30.80
2018-06-04T03:55:02.367Z,31.10
2018-06-04T03:56:02.327Z,30.70
2018-06-04T03:57:02.293Z,29.70
2018-06-04T03:58:02.263Z,30.30
2018-06-04T03:59:02.230Z,29.30
2018-06-04T04:00:02.191Z,29.20
2018-06-04T04:01:02.158Z,30.30
2018-06-04T04:02:02.129Z,30.00
2018-06-04T04:03:02.092Z,29.40
2018-06-04T04:04:02.062Z,29.00
2018-06-04T04:05:02.031Z,29.60
2018-06-04T04:06:01.995Z,30.90
2018-06-04T04:07:01.966Z,28.90
2018-06-04T04:08:01.923Z,31.00
2018-06-04T04:09:01.897Z,30.40
2018-06-04T04:10:01.860Z,31.50
2018-06-04T04:11:01.821Z,32.30
2018-06-04T04:12:01.805Z,33.50
2018-06-04T04:13:01.760Z,31.90
2018-06-04T04:14:01.729Z,32.30
2018-06-04T04:15:01.688Z,32.50
2018-06-04T04:16:01.664Z,31.10
2018-06-04T04:17:01.628Z,30.70
2018-06-04T04:18:01.591Z,31.30
2018-06-04T04:19:01.563Z,31.80
2018-06-04T04:20:01.522Z,30.80
2018-06-04T04:21:01.493Z,31.70
2018-06-04T04:22:01.459Z,30.30
2018-06-04T04:23:01.421Z,30.70
2018-06-04T04:24:01.397Z,29.80
2018-06-04T04:25:01.363Z,29.20
2018-06-04T04:26:01.335Z,28.50
2018-06-04T04:27:01.296Z,29.50
2018-06-04T04:28:01.285Z,28.40
2018-06-04T04:29:01.227Z,28.40
2018-06-04T04:30:01.196Z,28.70
2018-06-04T04:31:01.163Z,29.60
2018-06-04T04:32:01.126Z,29.90
2018-06-04T04:33:01.095Z,28.90
2018-06-04T04:34:01.060Z,31.00
2018-06-04T04:35:01.026Z,30.90
2018-06-04T04:36:00.998Z,29.80
2018-06-04T04:37:00.965Z,29.70
2018-06-04T04:38:00.930Z,29.70
2018-06-04T04:39:00.897Z,28.50
2018-06-04T04:40:00.860Z,29.30
2018-06-04T04:41:00.827Z,29.20
2018-06-04T04:42:00.797Z,29.10
2018-06-04T04:43:00.760Z,30.20
2018-06-04T04:44:00.735Z,27.90
2018-06-04T04:45:00.701Z,27.90
2018-06-04T04:46:00.664Z,28.60
2018-06-04T04:47:00.630Z,28.90
2018-06-04T04:48:00.602Z,28.40
2018-06-04T04:49:00.567Z,28.30
2018-06-04T04:50:00.536Z,28.80
2018-06-04T04:51:00.505Z,27.80
2018-06-04T04:52:00.463Z,28.80
2018-06-04T04:53:00.434Z,28.00
2018-06-04T04:54:00.400Z,26.80
2018-06-04T04:55:00.367Z,26.90
2018-06-04T04:56:00.341Z,27.80
2018-06-04T04:57:00.305Z,27.20
2018-06-04T04:58:00.274Z,28.50
2018-06-04T04:59:00.242Z,26.90
2018-06-04T05:00:00.200Z,27.50
2018-06-04T05:01:00.173Z,27.00
2018-06-04T05:02:00.141Z,26.60
2018-06-04T05:03:00.109Z,26.20
2018-06-04T05:04:00.076Z,25.90
2018-06-04T05:05:00.042Z,27.20
2018-06-04T05:06:00.015Z,25.30
2018-06-04T05:06:59.975Z,26.30
2018-06-04T05:07:59.948Z,26.20
2018-06-04T05:08:59.914Z,27.00
2018-06-04T05:09:59.881Z,26.40
2018-06-04T05:10:59.849Z,26.20
2018-06-04T05:11:59.814Z,26.90
2018-06-04T05:12:59.782Z,26.40
2018-06-04T05:13:59.750Z,26.30
2018-06-04T05:14:59.714Z,26.80
2018-06-04T05:15:59.691Z,25.80
2018-06-04T05:16:59.655Z,25.80
2018-06-04T05:17:59.619Z,26.70
2018-06-04T05:18:59.587Z,28.10
2018-06-04T05:19:59.562Z,29.00
2018-06-04T05:20:59.526Z,28.50
2018-06-04T05:21:59.494Z,28.80
2018-06-04T05:22:59.467Z,28.10
2018-06-04T05:23:59.427Z,27.90
2018-06-04T05:24:59.396Z,27.80
2018-06-04T05:25:59.365Z,26.50
2018-06-04T05:26:59.896Z,26.70
2018-06-04T05:27:59.302Z,27.10
2018-06-04T05:28:59.269Z,28.00
2018-06-04T05:29:59.234Z,27.30
2018-06-04T05:30:59.204Z,28.90
2018-06-04T05:31:59.170Z,28.60
2018-06-04T05:32:59.137Z,28.30
2018-06-04T05:33:59.111Z,28.00
2018-06-04T05:34:59.079Z,29.10
2018-06-04T05:35:59.042Z,27.70
2018-06-04T05:36:59.012Z,28.60
2018-06-04T05:37:58.980Z,28.30
2018-06-04T05:38:58.944Z,29.00
2018-06-04T05:39:58.929Z,29.40
2018-06-04T05:40:58.888Z,28.10
2018-06-04T05:41:58.855Z,29.10
2018-06-04T05:42:58.825Z,30.00
2018-06-04T05:43:58.789Z,31.00
2018-06-04T05:44:58.758Z,30.30
2018-06-04T05:45:58.727Z,32.40
2018-06-04T05:46:58.692Z,32.50
2018-06-04T05:47:58.665Z,32.80
2018-06-04T05:48:58.634Z,32.30
2018-06-04T05:49:58.637Z,31.20
2018-06-04T05:50:58.563Z,32.50
2018-06-04T05:51:58.539Z,32.60
2018-06-04T05:52:58.507Z,34.50
2018-06-04T05:53:58.477Z,34.20
2018-06-04T05:54:58.446Z,32.00
2018-06-04T05:55:58.443Z,33.20
2018-06-04T05:56:58.378Z,34.50
2018-06-04T05:57:58.348Z,34.90
2018-06-04T05:58:58.314Z,33.30
2018-06-04T05:59:58.288Z,36.00
2018-06-04T06:00:58.263Z,35.40
2018-06-04T06:01:58.226Z,37.10
2018-06-04T06:02:58.194Z,37.50
2018-06-04T06:03:58.161Z,36.50
2018-06-04T06:04:58.131Z,35.80
2018-06-04T06:05:58.106Z,37.90
2018-06-04T06:06:58.071Z,35.90
2018-06-04T06:07:58.036Z,35.90
2018-06-04T06:08:58.007Z,34.40
2018-06-04T06:09:57.973Z,35.50
2018-06-04T06:10:57.938Z,37.10
2018-06-04T06:11:57.918Z,33.90
2018-06-04T06:12:57.886Z,35.00
2018-06-04T06:13:57.850Z,33.70
2018-06-04T06:14:57.821Z,35.10
2018-06-04T06:15:57.784Z,34.00
2018-06-04T06:16:57.756Z,34.40
2018-06-04T06:17:57.724Z,35.20
2018-06-04T06:18:57.691Z,33.70
2018-06-04T06:19:57.665Z,32.10
2018-06-04T06:20:57.639Z,32.80
2018-06-04T06:21:57.599Z,32.70
2018-06-04T06:22:57.574Z,31.50
2018-06-04T06:23:57.541Z,31.70
2018-06-04T06:24:57.510Z,30.40
2018-06-04T06:25:57.478Z,30.30
2018-06-04T06:26:57.453Z,29.80
2018-06-04T06:27:57.413Z,29.50
2018-06-04T06:28:57.384Z,29.40
2018-06-04T06:29:57.353Z,28.80
2018-06-04T06:30:57.319Z,27.80
2018-06-04T06:31:57.299Z,27.80
2018-06-04T06:32:57.264Z,27.70
2018-06-04T06:33:57.231Z,28.30
2018-06-04T06:34:57.203Z,27.80
2018-06-04T06:35:57.168Z,28.50
2018-06-04T06:36:57.139Z,28.50
2018-06-04T06:37:57.109Z,29.80
2018-06-04T06:38:57.081Z,26.40
2018-06-04T06:39:57.048Z,25.20
2018-06-04T06:40:57.017Z,23.80
2018-06-04T06:41:56.992Z,24.80
2018-06-04T06:42:56.951Z,25.30
2018-06-04T06:43:56.934Z,26.30
2018-06-04T06:44:56.897Z,25.70
2018-06-04T06:45:56.868Z,25.50
2018-06-04T06:46:56.839Z,25.60
2018-06-04T06:47:56.800Z,26.40
2018-06-04T06:48:56.775Z,24.80
2018-06-04T06:49:56.744Z,26.90
2018-06-04T06:50:56.711Z,26.50
2018-06-04T06:51:56.686Z,27.00
2018-06-04T06:52:56.660Z,25.80
2018-06-04T06:53:56.623Z,27.20
2018-06-04T06:54:56.590Z,26.80
2018-06-04T06:55:56.568Z,25.80
2018-06-04T06:56:56.541Z,26.80
2018-06-04T06:57:56.504Z,27.10
2018-06-04T06:58:56.478Z,26.90
2018-06-04T06:59:56.441Z,26.10
2018-06-04T07:00:56.414Z,26.40
2018-06-04T07:01:56.417Z,26.20
2018-06-04T07:02:56.352Z,24.80
2018-06-04T07:03:56.336Z,27.40
2018-06-04T07:04:56.296Z,25.30
2018-06-04T07:05:56.267Z,26.20
2018-06-04T07:06:56.249Z,25.00
2018-06-04T07:07:56.200Z,25.30
2018-06-04T07:08:56.177Z,26.20
2018-06-04T07:09:56.148Z,25.70
2018-06-04T07:10:56.121Z,25.60
2018-06-04T07:11:56.082Z,24.60
2018-06-04T07:12:56.058Z,24.90
2018-06-04T07:13:56.027Z,25.10
2018-06-04T07:14:55.993Z,25.60
2018-06-04T07:15:55.970Z,27.10
2018-06-04T07:16:55.941Z,25.60
2018-06-04T07:17:55.911Z,27.00
2018-06-04T07:18:55.881Z,26.50
2018-06-04T07:19:55.849Z,26.30
2018-06-04T07:20:55.822Z,27.20
2018-06-04T07:21:55.790Z,27.50
2018-06-04T07:22:55.764Z,27.20
2018-06-04T07:23:55.736Z,27.60
2018-06-04T07:24:55.705Z,27.10
2018-06-04T07:25:55.673Z,27.10
2018-06-04T07:26:55.641Z,26.50
2018-06-04T07:27:55.616Z,25.90
2018-06-04T07:28:55.586Z,25.90
2018-06-04T07:29:55.556Z,26.00
2018-06-04T07:30:55.527Z,25.60
2018-06-04T07:31:55.492Z,26.00
2018-06-04T07:32:55.467Z,26.20
2018-06-04T07:33:55.436Z,24.90
2018-06-04T07:34:55.456Z,24.40
2018-06-04T07:35:55.383Z,24.90
2018-06-04T07:36:55.352Z,24.80
2018-06-04T07:37:55.321Z,24.90
2018-06-04T07:38:55.292Z,25.40
2018-06-04T07:39:55.260Z,25.90
2018-06-04T07:40:55.232Z,24.20
2018-06-04T07:41:55.206Z,24.90
2018-06-04T07:42:55.173Z,23.50
2018-06-04T07:43:55.142Z,24.10
2018-06-04T07:44:55.114Z,23.70
2018-06-04T07:45:55.087Z,24.00
2018-06-04T07:46:55.054Z,23.70
2018-06-04T07:47:55.033Z,23.70
2018-06-04T07:48:54.997Z,23.90
2018-06-04T07:49:55.023Z,24.20
2018-06-04T07:50:54.940Z,24.20
2018-06-04T07:51:54.904Z,22.50
2018-06-04T07:52:54.877Z,23.20
2018-06-04T07:53:54.848Z,23.10
2018-06-04T07:54:54.815Z,23.00
2018-06-04T07:55:54.794Z,23.80
2018-06-04T07:56:54.763Z,23.50
2018-06-04T07:57:54.729Z,22.80
2018-06-04T07:58:54.695Z,22.50
2018-06-04T07:59:54.674Z,23.50
2018-06-04T08:00:54.644Z,22.30
2018-06-04T08:01:54.614Z,23.30
2018-06-04T08:02:54.587Z,23.30
2018-06-04T08:03:54.548Z,23.70
2018-06-04T08:04:54.524Z,23.00
2018-06-04T08:05:54.495Z,24.10
2018-06-04T08:06:54.460Z,24.20
2018-06-04T08:07:54.441Z,23.50
2018-06-04T08:08:54.408Z,23.90
2018-06-04T08:09:54.418Z,24.60
2018-06-04T08:10:54.348Z,25.20
2018-06-04T08:11:54.314Z,24.70
2018-06-04T08:12:54.289Z,24.90
2018-06-04T08:13:54.263Z,24.40
2018-06-04T08:14:54.234Z,25.80
2018-06-04T08:15:54.196Z,25.10
2018-06-04T08:16:54.171Z,26.20
2018-06-04T08:17:54.177Z,24.50
2018-06-04T08:18:54.106Z,24.60
2018-06-04T08:19:54.086Z,25.30
2018-06-04T08:20:54.061Z,24.50
2018-06-04T08:21:54.023Z,25.20
2018-06-04T08:22:53.996Z,24.10
2018-06-04T08:23:54.002Z,25.20
2018-06-04T08:24:53.934Z,25.50
2018-06-04T08:25:53.905Z,26.00
2018-06-04T08:26:53.876Z,24.70
2018-06-04T08:27:53.849Z,26.60
2018-06-04T08:28:53.820Z,26.20
2018-06-04T08:29:53.786Z,25.50
2018-06-04T08:30:53.758Z,25.40
2018-06-04T08:31:53.732Z,25.20
2018-06-04T08:32:53.702Z,25.80
2018-06-04T08:33:53.668Z,25.80
2018-06-04T08:34:53.641Z,24.50
2018-06-04T08:35:53.607Z,24.70
2018-06-04T08:36:53.582Z,24.30
2018-06-04T08:37:53.546Z,25.00
2018-06-04T08:38:53.520Z,24.30
2018-06-04T08:39:53.496Z,23.00
2018-06-04T08:40:53.466Z,23.00
2018-06-04T08:41:53.435Z,25.60
2018-06-04T08:42:53.407Z,26.60
2018-06-04T08:43:53.374Z,26.10
2018-06-04T08:44:53.343Z,24.80
2018-06-04T08:45:53.329Z,25.20
2018-06-04T08:46:53.287Z,24.80
2018-06-04T08:47:53.256Z,25.00
2018-06-04T08:48:53.226Z,23.70
2018-06-04T08:49:53.195Z,24.30
2018-06-04T08:50:53.180Z,22.90
2018-06-04T08:51:53.143Z,22.70
2018-06-04T08:52:53.112Z,23.30
2018-06-04T08:53:53.083Z,22.40
2018-06-04T08:54:53.053Z,24.50
2018-06-04T08:55:53.025Z,21.60
2018-06-04T08:56:52.992Z,20.80
2018-06-04T08:57:52.959Z,23.00
2018-06-04T08:58:52.932Z,21.50
2018-06-04T08:59:52.906Z,23.00
2018-06-04T09:00:52.880Z,22.40
2018-06-04T09:01:52.843Z,22.10
2018-06-04T09:02:52.815Z,21.80
2018-06-04T09:03:52.790Z,21.30
2018-06-04T09:04:52.760Z,22.90
2018-06-04T09:05:52.731Z,21.40
2018-06-04T09:06:52.700Z,22.30
2018-06-04T09:07:52.669Z,21.30
2018-06-04T09:08:52.642Z,18.60
2018-06-04T09:09:52.622Z,19.10
2018-06-04T09:10:52.584Z,18.90
2018-06-04T09:11:52.555Z,18.00
2018-06-04T09:12:52.529Z,17.60
2018-06-04T09:13:52.498Z,18.20
2018-06-04T09:14:52.468Z,17.60
2018-06-04T09:15:52.436Z,17.90
2018-06-04T09:16:52.404Z,18.40
2018-06-04T09:17:52.385Z,18.30
2018-06-04T09:18:52.350Z,18.20
2018-06-04T09:19:52.321Z,18.40
2018-06-04T09:20:52.288Z,19.50
2018-06-04T09:21:52.257Z,19.80
2018-06-04T09:22:52.234Z,17.80
2018-06-04T09:23:52.206Z,19.50
2018-06-04T09:24:52.178Z,19.60
2018-06-04T09:25:52.150Z,19.70
2018-06-04T09:26:52.120Z,17.80
2018-06-04T09:27:52.091Z,17.00
2018-06-04T09:28:52.055Z,16.50
2018-06-04T09:29:52.025Z,16.20
2018-06-04T09:30:52.003Z,16.50
2018-06-04T09:31:51.974Z,16.70
2018-06-04T09:32:51.947Z,17.60
2018-06-04T09:33:51.910Z,16.30
2018-06-04T09:34:51.885Z,14.60
2018-06-04T09:35:51.860Z,15.00
2018-06-04T09:36:51.832Z,16.40
2018-06-04T09:37:51.803Z,17.40
2018-06-04T09:38:51.773Z,16.90
2018-06-04T09:39:51.742Z,17.10
2018-06-04T09:40:51.708Z,18.60
2018-06-04T09:41:51.678Z,19.10
2018-06-04T09:42:51.653Z,19.80
2018-06-04T09:43:51.628Z,19.90
2018-06-04T09:44:51.600Z,19.60
2018-06-04T09:45:51.571Z,18.60
2018-06-04T09:46:51.539Z,18.50
2018-06-04T09:47:51.510Z,18.00
2018-06-04T09:48:51.479Z,18.50
2018-06-04T09:49:51.454Z,18.60
2018-06-04T09:50:51.426Z,18.50
2018-06-04T09:51:51.395Z,18.40
2018-06-04T09:52:51.362Z,19.20
2018-06-04T09:53:51.340Z,18.50
2018-06-04T09:54:51.307Z,17.10
2018-06-04T09:55:51.282Z,18.00
2018-06-04T09:56:51.254Z,17.70
2018-06-04T09:57:51.226Z,17.50
2018-06-04T09:58:51.195Z,18.20
2018-06-04T09:59:51.207Z,18.00
2018-06-04T10:00:51.131Z,18.10
2018-06-04T10:01:51.106Z,17.30
2018-06-04T10:02:51.078Z,16.30
2018-06-04T10:03:51.051Z,16.50
2018-06-04T10:04:51.026Z,17.40
2018-06-04T10:05:50.993Z,16.30
2018-06-04T10:06:50.963Z,15.80
2018-06-04T10:07:50.940Z,17.90
2018-06-04T10:08:50.910Z,18.50
2018-06-04T10:09:50.882Z,17.20
2018-06-04T10:10:50.852Z,18.00
2018-06-04T10:11:50.820Z,18.40
2018-06-04T10:12:50.792Z,18.00
2018-06-04T10:13:50.762Z,17.70
2018-06-04T10:14:50.735Z,18.80
2018-06-04T10:15:50.706Z,16.80
2018-06-04T10:16:50.680Z,16.50
2018-06-04T10:17:50.649Z,16.10
2018-06-04T10:18:50.622Z,17.80
2018-06-04T10:19:50.600Z,16.70
2018-06-04T10:20:50.569Z,17.70
2018-06-04T10:21:50.537Z,17.30
2018-06-04T10:22:50.508Z,16.50
2018-06-04T10:23:50.477Z,17.40
2018-06-04T10:24:50.469Z,17.70
2018-06-04T10:25:50.421Z,18.80
2018-06-04T10:26:50.392Z,19.40
2018-06-04T10:27:50.376Z,21.30
2018-06-04T10:28:50.336Z,22.60
2018-06-04T10:29:50.309Z,19.90
2018-06-04T10:30:50.279Z,19.00
2018-06-04T10:31:50.248Z,20.10
2018-06-04T10:32:50.224Z,20.70
2018-06-04T10:33:50.187Z,19.00
2018-06-04T10:34:50.163Z,19.10
2018-06-04T10:35:50.137Z,19.90
2018-06-04T10:36:50.113Z,18.60
2018-06-04T10:37:50.104Z,18.10
2018-06-04T10:38:50.051Z,20.50
2018-06-04T10:39:50.021Z,20.20
2018-06-04T10:40:49.997Z,19.60
2018-06-04T10:41:49.967Z,18.80
2018-06-04T10:42:49.941Z,18.40
2018-06-04T10:43:49.906Z,18.70
2018-06-04T10:44:49.873Z,19.00
2018-06-04T10:45:49.843Z,19.30
2018-06-04T10:46:49.821Z,19.90
2018-06-04T10:47:49.795Z,19.90
2018-06-04T10:48:49.768Z,20.40
2018-06-04T10:49:49.748Z,19.40
2018-06-04T10:50:49.710Z,18.90
2018-06-04T10:51:49.680Z,18.70
2018-06-04T10:52:49.648Z,18.50
2018-06-04T10:53:49.625Z,18.20
2018-06-04T10:54:49.596Z,18.40
2018-06-04T10:55:49.565Z,18.90
2018-06-04T10:56:49.533Z,18.80
2018-06-04T10:57:49.505Z,18.10
2018-06-04T10:58:49.479Z,18.00
2018-06-04T10:59:49.455Z,19.80
2018-06-04T11:00:49.426Z,18.60
2018-06-04T11:01:49.398Z,18.10
2018-06-04T11:02:49.368Z,17.70
2018-06-04T11:03:49.340Z,16.80
2018-06-04T11:04:49.319Z,16.50
2018-06-04T11:05:49.277Z,16.60
2018-06-04T11:06:49.253Z,18.20
2018-06-04T11:07:49.246Z,20.00
2018-06-04T11:08:49.202Z,19.80
2018-06-04T11:09:49.164Z,18.10
2018-06-04T11:10:49.141Z,16.20
2018-06-04T11:11:49.116Z,16.70
2018-06-04T11:12:49.087Z,18.50
2018-06-04T11:13:49.060Z,19.70
2018-06-04T11:14:49.031Z,19.90
2018-06-04T11:15:49.005Z,18.80
2018-06-04T11:16:48.967Z,18.70
2018-06-04T11:17:48.943Z,19.20
2018-06-04T11:18:48.923Z,18.50
2018-06-04T11:19:48.889Z,18.20
2018-06-04T11:20:48.901Z,16.00
2018-06-04T11:21:48.835Z,16.90
2018-06-04T11:22:48.804Z,16.30
2018-06-04T11:23:48.775Z,16.20
2018-06-04T11:24:48.753Z,17.80
2018-06-04T11:25:48.742Z,17.40
2018-06-04T11:26:48.693Z,17.00
2018-06-04T11:27:48.669Z,17.60
2018-06-04T11:28:48.640Z,16.70
2018-06-04T11:29:48.613Z,18.60
2018-06-04T11:30:48.595Z,18.20
2018-06-04T11:31:48.591Z,16.80
2018-06-04T11:32:48.686Z,18.00
2018-06-04T11:33:48.497Z,19.00
2018-06-04T11:34:48.478Z,19.60
2018-06-04T11:35:48.474Z,20.20
2018-06-04T11:36:48.416Z,19.90
2018-06-04T11:37:48.377Z,19.20
2018-06-04T11:38:48.355Z,19.10
2018-06-04T11:39:48.329Z,17.40
2018-06-04T11:40:48.302Z,18.20
2018-06-04T11:41:48.268Z,19.60
2018-06-04T11:42:48.244Z,18.60
2018-06-04T11:43:48.221Z,18.90
2018-06-04T11:44:48.194Z,19.10
2018-06-04T11:45:48.171Z,17.50
2018-06-04T11:46:48.198Z,17.60
2018-06-04T11:47:48.104Z,17.70
2018-06-04T11:48:48.125Z,17.90
2018-06-04T11:49:48.046Z,18.80
2018-06-04T11:50:48.021Z,17.80
2018-06-04T11:51:47.996Z,17.30
2018-06-04T11:52:47.971Z,18.10
2018-06-04T11:53:47.960Z,17.40
2018-06-04T11:54:47.911Z,18.60
2018-06-04T11:55:47.882Z,19.10
2018-06-04T11:56:47.864Z,18.90
2018-06-04T11:57:47.832Z,18.10
2018-06-04T11:58:47.808Z,17.90
2018-06-04T11:59:47.770Z,16.50
2018-06-04T12:00:47.736Z,16.00
2018-06-04T12:01:47.710Z,15.10
2018-06-04T12:02:47.684Z,15.60
2018-06-04T12:03:47.659Z,15.50
2018-06-04T12:04:47.632Z,15.70
2018-06-04T12:05:47.605Z,16.70
2018-06-04T12:06:47.576Z,16.60
2018-06-04T12:07:47.547Z,16.70
2018-06-04T12:08:47.516Z,17.20
2018-06-04T12:09:47.484Z,16.10
2018-06-04T12:10:47.463Z,18.70
2018-06-04T12:11:47.512Z,17.70
2018-06-04T12:12:47.411Z,17.50
2018-06-04T12:13:47.375Z,17.70
2018-06-04T12:14:47.352Z,17.30
2018-06-04T12:15:47.326Z,16.50
2018-06-04T12:16:47.299Z,15.60
2018-06-04T12:17:47.273Z,15.80
2018-06-04T12:18:47.256Z,15.00
2018-06-04T12:19:47.212Z,15.40
2018-06-04T12:20:47.183Z,16.00
2018-06-04T12:21:47.151Z,15.00
2018-06-04T12:22:47.132Z,15.40
2018-06-04T12:23:47.103Z,15.50
2018-06-04T12:24:47.077Z,14.70
2018-06-04T12:25:47.050Z,14.50
2018-06-04T12:26:47.021Z,14.00
2018-06-04T12:27:46.993Z,14.20
2018-06-04T12:28:46.962Z,13.60
2018-06-04T12:29:46.939Z,14.20
2018-06-04T12:30:46.910Z,12.90
2018-06-04T12:31:46.880Z,13.30
2018-06-04T12:32:46.851Z,13.00
2018-06-04T12:33:46.824Z,12.90
2018-06-04T12:34:46.795Z,13.00
2018-06-04T12:35:46.774Z,13.50
2018-06-04T12:36:46.747Z,12.60
2018-06-04T12:37:46.719Z,12.30
2018-06-04T12:38:46.691Z,11.50
2018-06-04T12:39:46.659Z,11.20
2018-06-04T12:40:46.631Z,11.70
2018-06-04T12:41:46.601Z,11.70
2018-06-04T12:42:46.576Z,12.10
2018-06-04T12:43:46.552Z,12.40
2018-06-04T12:44:46.527Z,11.80
2018-06-04T12:45:46.491Z,11.40
2018-06-04T12:46:46.465Z,10.90
2018-06-04T12:47:46.440Z,10.70
2018-06-04T12:48:46.414Z,11.10
2018-06-04T12:49:46.387Z,11.40
2018-06-04T12:50:46.357Z,11.80
2018-06-04T12:51:46.328Z,10.50